createdAt,value
2023-11-30T00:01:42.980Z,10.80
2023-11-30T00:04:10.751Z,10.77
2023-11-30T00:06:39.293Z,11.00
2023-11-30T00:09:06.964Z,10.87
2023-11-30T00:11:34.629Z,11.33
2023-11-30T00:14:03.216Z,10.40
2023-11-30T00:16:32.454Z,10.23
2023-11-30T00:19:00.359Z,9.47
2023-11-30T00:21:28.111Z,9.47
2023-11-30T00:23:59.567Z,8.13
2023-11-30T00:26:30.729Z,9.03
2023-11-30T00:28:58.474Z,8.83
2023-11-30T00:31:29.437Z,8.30
2023-11-30T00:33:58.973Z,8.43
2023-11-30T00:36:26.701Z,8.87
2023-11-30T00:38:54.564Z,8.77
2023-11-30T00:41:22.820Z,9.93
2023-11-30T00:43:52.361Z,9.00
2023-11-30T00:46:20.383Z,8.87
2023-11-30T00:48:48.318Z,9.07
2023-11-30T00:51:17.755Z,9.17
2023-11-30T00:53:45.409Z,9.40
2023-11-30T00:56:13.664Z,8.53
2023-11-30T00:58:41.413Z,8.77
2023-11-30T01:01:09.250Z,8.77
2023-11-30T01:03:37.023Z,9.20
2023-11-30T01:06:05.050Z,8.83
2023-11-30T01:08:34.332Z,8.20
2023-11-30T01:11:04.630Z,9.47
2023-11-30T01:13:34.146Z,9.20
2023-11-30T01:16:01.942Z,8.50
2023-11-30T01:18:30.135Z,8.57
2023-11-30T01:20:58.456Z,9.13
2023-11-30T01:23:26.345Z,9.03
2023-11-30T01:25:55.361Z,9.37
2023-11-30T01:28:23.206Z,9.77
2023-11-30T01:30:50.945Z,9.67
2023-11-30T01:33:18.703Z,10.10
2023-11-30T01:35:48.841Z,9.37
2023-11-30T01:38:16.632Z,10.80
2023-11-30T01:40:44.360Z,9.23
2023-11-30T01:43:13.626Z,9.97
2023-11-30T01:45:41.461Z,8.93
2023-11-30T01:48:09.356Z,9.57
2023-11-30T01:50:37.112Z,9.77
2023-11-30T01:53:04.735Z,9.90
2023-11-30T01:55:32.706Z,9.60
2023-11-30T01:58:01.189Z,9.87
2023-11-30T02:00:32.662Z,8.73
2023-11-30T02:03:00.999Z,10.57
2023-11-30T02:05:29.957Z,9.57
2023-11-30T02:07:57.810Z,10.17
2023-11-30T02:10:26.369Z,10.03
2023-11-30T02:12:55.360Z,10.20
2023-11-30T02:15:25.055Z,9.17
2023-11-30T02:17:54.269Z,10.53
2023-11-30T02:20:22.169Z,12.23
2023-11-30T02:22:51.386Z,12.73
2023-11-30T02:25:19.356Z,11.00
2023-11-30T02:27:50.491Z,16.13
2023-11-30T02:30:18.269Z,22.67
2023-11-30T02:32:46.149Z,17.30
2023-11-30T02:35:14.014Z,11.57
2023-11-30T02:37:41.836Z,11.53
2023-11-30T02:40:12.146Z,11.53
2023-11-30T02:42:39.851Z,12.50
2023-11-30T02:45:08.652Z,12.50
2023-11-30T02:47:36.651Z,13.60
2023-11-30T02:50:05.006Z,13.40
2023-11-30T02:52:32.741Z,12.50
2023-11-30T02:55:00.474Z,13.07
2023-11-30T02:57:29.508Z,14.17
2023-11-30T02:59:57.447Z,14.03
2023-11-30T03:02:26.816Z,13.00
2023-11-30T03:04:55.817Z,13.87
2023-11-30T03:07:23.470Z,12.60
2023-11-30T03:09:51.155Z,11.03
2023-11-30T03:12:18.916Z,10.87
2023-11-30T03:14:48.130Z,11.40
2023-11-30T03:17:16.029Z,11.87
2023-11-30T03:19:44.212Z,12.00
2023-11-30T03:22:12.122Z,12.43
2023-11-30T03:24:39.867Z,11.43
2023-11-30T03:27:10.332Z,12.57
2023-11-30T03:29:38.039Z,12.97
2023-11-30T03:32:07.295Z,12.67
2023-11-30T03:34:34.919Z,13.33
2023-11-30T03:37:02.730Z,12.53
2023-11-30T03:39:30.560Z,13.67
2023-11-30T03:41:58.344Z,12.53
2023-11-30T03:44:25.988Z,13.27
2023-11-30T03:46:53.759Z,12.60
2023-11-30T03:49:22.764Z,13.30
2023-11-30T03:51:50.662Z,12.63
2023-11-30T03:54:18.435Z,12.57
2023-11-30T03:56:46.162Z,13.17
2023-11-30T03:59:13.858Z,11.73
2023-11-30T04:01:42.932Z,12.07
2023-11-30T04:04:10.635Z,13.37
2023-11-30T04:06:39.912Z,14.77
2023-11-30T04:09:08.450Z,12.70
2023-11-30T04:11:36.495Z,12.77
2023-11-30T04:14:08.667Z,14.67
2023-11-30T04:16:38.303Z,13.70
2023-11-30T04:19:06.095Z,15.73
2023-11-30T04:21:36.559Z,13.93
2023-11-30T04:24:05.355Z,21.23
2023-11-30T04:26:33.101Z,20.50
2023-11-30T04:29:00.871Z,20.17
2023-11-30T04:31:28.777Z,16.83
2023-11-30T04:33:56.566Z,15.80
2023-11-30T04:36:24.323Z,14.50
2023-11-30T04:38:52.073Z,16.27
2023-11-30T04:41:21.113Z,17.27
2023-11-30T04:43:48.883Z,15.47
2023-11-30T04:46:16.688Z,16.50
2023-11-30T04:48:44.448Z,15.47
2023-11-30T04:51:12.178Z,15.80
2023-11-30T04:53:39.918Z,16.90
2023-11-30T04:56:08.388Z,15.90
2023-11-30T04:58:37.420Z,15.57
2023-11-30T05:01:05.991Z,21.00
2023-11-30T05:03:33.939Z,19.73
2023-11-30T05:06:01.844Z,21.43
2023-11-30T05:08:29.591Z,21.90
2023-11-30T05:10:57.305Z,22.00
2023-11-30T05:13:24.975Z,15.47
2023-11-30T05:15:54.013Z,14.57
2023-11-30T05:18:21.749Z,15.77
2023-11-30T05:20:49.422Z,15.23
2023-11-30T05:23:17.758Z,15.47
2023-11-30T05:25:45.527Z,16.00
2023-11-30T05:28:13.257Z,18.17
2023-11-30T05:30:40.954Z,18.07
2023-11-30T05:33:10.179Z,17.07
2023-11-30T05:35:37.904Z,18.30
2023-11-30T05:38:05.555Z,16.33
2023-11-30T05:40:33.256Z,17.13
2023-11-30T05:43:00.925Z,16.03
2023-11-30T05:45:29.093Z,17.23
2023-11-30T05:47:56.899Z,18.20
2023-11-30T05:50:26.000Z,19.93
2023-11-30T05:52:53.913Z,21.53
2023-11-30T05:55:21.973Z,23.43
2023-11-30T05:57:49.662Z,20.23
2023-11-30T06:00:18.275Z,18.40
2023-11-30T06:02:46.005Z,16.73
2023-11-30T06:05:13.821Z,17.57
2023-11-30T06:07:45.845Z,17.77
2023-11-30T06:10:15.137Z,17.60
2023-11-30T06:12:42.850Z,22.33
2023-11-30T06:15:11.648Z,21.97
2023-11-30T06:17:39.388Z,24.77
2023-11-30T06:20:11.399Z,21.03
2023-11-30T06:22:39.371Z,23.10
2023-11-30T06:25:09.993Z,21.83
2023-11-30T06:27:37.724Z,21.83
2023-11-30T06:30:06.128Z,20.47
2023-11-30T06:32:34.005Z,19.40
2023-11-30T06:35:01.649Z,21.47
2023-11-30T06:37:29.376Z,20.90
2023-11-30T06:39:57.058Z,20.57
2023-11-30T06:42:26.268Z,22.10
2023-11-30T06:44:53.988Z,22.07
2023-11-30T06:47:21.955Z,22.40
2023-11-30T06:49:49.752Z,22.90
2023-11-30T06:52:18.079Z,22.63
2023-11-30T06:54:45.731Z,23.67
2023-11-30T06:57:15.853Z,22.27
2023-11-30T06:59:44.931Z,21.33
2023-11-30T07:02:12.832Z,27.47
2023-11-30T07:04:40.926Z,26.87
2023-11-30T07:07:11.355Z,25.67
2023-11-30T07:09:40.828Z,23.23
2023-11-30T07:12:09.279Z,22.73
2023-11-30T07:14:50.453Z,24.50
2023-11-30T07:17:24.492Z,30.90
2023-11-30T07:19:52.794Z,23.57
2023-11-30T07:22:21.558Z,27.40
2023-11-30T07:24:49.702Z,23.50
2023-11-30T07:27:18.945Z,24.53
2023-11-30T07:29:46.725Z,22.37
2023-11-30T07:32:17.184Z,24.60
2023-11-30T07:34:46.745Z,22.50
2023-11-30T07:37:17.577Z,22.73
2023-11-30T07:39:45.326Z,22.20
2023-11-30T07:42:14.252Z,24.17
2023-11-30T07:44:44.436Z,27.57
2023-11-30T07:47:12.386Z,22.97
2023-11-30T07:49:40.053Z,28.33
2023-11-30T07:52:09.247Z,28.10
2023-11-30T07:54:36.948Z,35.10
2023-11-30T07:57:04.952Z,36.07
2023-11-30T07:59:32.647Z,37.07
2023-11-30T08:02:01.383Z,27.67
2023-11-30T08:04:30.066Z,24.27
2023-11-30T08:06:57.838Z,30.73
2023-11-30T08:09:26.881Z,23.53
2023-11-30T08:11:54.545Z,43.73
2023-11-30T08:14:22.243Z,22.10
2023-11-30T08:16:49.999Z,61.53
2023-11-30T08:19:17.797Z,52.87
2023-11-30T08:21:46.221Z,49.93
2023-11-30T08:24:14.195Z,31.37
2023-11-30T08:26:43.715Z,27.87
2023-11-30T08:29:11.400Z,35.87
2023-11-30T08:31:39.085Z,29.33
2023-11-30T08:34:06.766Z,39.33
2023-11-30T08:36:34.385Z,26.17
2023-11-30T08:39:04.255Z,47.53
2023-11-30T08:41:32.294Z,27.73
2023-11-30T08:44:01.250Z,23.60
2023-11-30T08:46:29.493Z,42.00
2023-11-30T08:48:57.185Z,25.17
2023-11-30T08:51:25.283Z,22.40
2023-11-30T08:53:52.940Z,24.43
2023-11-30T08:56:20.848Z,23.47
2023-11-30T08:58:48.489Z,33.07
2023-11-30T09:01:17.536Z,23.37
2023-11-30T09:03:46.273Z,39.37
2023-11-30T09:06:14.098Z,23.13
2023-11-30T09:08:41.931Z,33.20
2023-11-30T09:11:09.936Z,31.07
2023-11-30T09:13:37.795Z,29.03
2023-11-30T09:16:06.090Z,22.50
2023-11-30T09:18:35.132Z,29.40
2023-11-30T09:21:02.925Z,29.93
2023-11-30T09:23:30.983Z,30.03
2023-11-30T09:25:58.715Z,26.50
2023-11-30T09:28:26.418Z,25.93
2023-11-30T09:30:54.160Z,20.67
2023-11-30T09:33:21.950Z,23.67
2023-11-30T09:35:51.110Z,22.90
2023-11-30T09:38:18.951Z,21.77
2023-11-30T09:40:46.789Z,21.20
2023-11-30T09:43:17.573Z,19.47
2023-11-30T09:45:47.027Z,22.13
2023-11-30T09:48:15.054Z,44.10
2023-11-30T09:50:43.098Z,22.60
2023-11-30T09:53:12.439Z,20.63
2023-11-30T09:55:40.186Z,31.07
2023-11-30T09:58:07.879Z,31.00
2023-11-30T10:00:35.596Z,27.97
2023-11-30T10:03:06.987Z,21.40
2023-11-30T10:05:34.825Z,19.47
2023-11-30T10:08:04.162Z,20.13
2023-11-30T10:10:33.329Z,23.13
2023-11-30T10:13:00.998Z,23.20
2023-11-30T10:15:28.850Z,24.67
2023-11-30T10:17:56.737Z,21.13
2023-11-30T10:20:26.890Z,20.07
2023-11-30T10:22:54.644Z,20.60
2023-11-30T10:25:22.460Z,21.90
2023-11-30T10:27:53.996Z,25.83
2023-11-30T10:30:23.857Z,23.87
2023-11-30T10:32:51.758Z,23.43
2023-11-30T10:35:21.283Z,23.23
2023-11-30T10:37:51.592Z,22.10
2023-11-30T10:40:20.521Z,21.80
2023-11-30T10:42:50.952Z,20.17
2023-11-30T10:45:19.475Z,26.63
2023-11-30T10:47:47.914Z,25.70
2023-11-30T10:50:16.188Z,22.87
2023-11-30T10:52:45.212Z,21.67
2023-11-30T10:55:14.387Z,22.37
2023-11-30T10:57:43.230Z,22.97
2023-11-30T11:00:14.988Z,21.33
2023-11-30T11:02:44.690Z,21.30
2023-11-30T11:05:14.736Z,19.93
2023-11-30T11:07:45.889Z,18.50
2023-11-30T11:10:23.252Z,18.40
2023-11-30T11:12:51.598Z,19.73
2023-11-30T11:15:23.640Z,18.37
2023-11-30T11:17:53.709Z,18.97
2023-11-30T11:20:25.998Z,18.30
2023-11-30T11:22:55.618Z,17.07
2023-11-30T11:25:23.378Z,16.63
2023-11-30T11:27:51.015Z,16.30
2023-11-30T11:30:18.957Z,16.90
2023-11-30T11:32:50.605Z,17.40
2023-11-30T11:35:18.366Z,18.20
2023-11-30T11:37:46.053Z,20.07
2023-11-30T11:40:13.860Z,18.97
2023-11-30T11:42:41.543Z,17.23
2023-11-30T11:45:10.294Z,16.17
2023-11-30T11:47:38.126Z,15.47
2023-11-30T11:50:08.229Z,14.40
2023-11-30T11:52:36.164Z,14.63
2023-11-30T11:55:05.953Z,15.53
2023-11-30T11:57:38.057Z,13.17
2023-11-30T12:00:07.262Z,14.67
2023-11-30T12:02:35.968Z,14.80
2023-11-30T12:05:14.770Z,14.60
2023-11-30T12:07:50.190Z,15.03
2023-11-30T12:10:32.012Z,16.53
2023-11-30T12:13:00.832Z,15.93
2023-11-30T12:15:29.429Z,15.97
2023-11-30T12:17:57.545Z,17.17
2023-11-30T12:20:26.977Z,16.03
2023-11-30T12:22:54.706Z,15.73
2023-11-30T12:25:22.460Z,15.53
2023-11-30T12:27:51.065Z,15.73
2023-11-30T12:30:19.554Z,15.90
2023-11-30T12:32:47.638Z,15.67
2023-11-30T12:35:15.294Z,15.90
2023-11-30T12:37:44.447Z,14.80
2023-11-30T12:40:14.576Z,15.63
2023-11-30T12:42:43.057Z,14.90
2023-11-30T12:45:11.632Z,15.63
2023-11-30T12:47:42.099Z,14.70
2023-11-30T12:50:13.666Z,15.80
2023-11-30T12:52:41.492Z,14.80
2023-11-30T12:55:11.173Z,15.37
2023-11-30T12:57:40.789Z,15.30
2023-11-30T13:00:16.045Z,15.50
2023-11-30T13:02:46.665Z,15.23
2023-11-30T13:05:15.071Z,15.83
2023-11-30T13:07:42.789Z,16.23
2023-11-30T13:10:12.640Z,15.47
2023-11-30T13:12:41.784Z,15.00
2023-11-30T13:15:12.154Z,14.87
2023-11-30T13:17:41.123Z,15.10
2023-11-30T13:20:13.736Z,15.47
2023-11-30T13:22:41.739Z,14.77
2023-11-30T13:25:12.322Z,12.90
2023-11-30T13:27:40.279Z,13.67
2023-11-30T13:30:09.961Z,13.47
2023-11-30T13:32:37.727Z,13.80
2023-11-30T13:35:07.143Z,13.37
2023-11-30T13:37:35.970Z,13.90
2023-11-30T13:40:06.621Z,13.37
2023-11-30T13:42:35.744Z,13.97
2023-11-30T13:45:03.546Z,13.53
2023-11-30T13:47:31.795Z,13.80
2023-11-30T13:49:59.552Z,13.17
2023-11-30T13:52:28.474Z,14.23
2023-11-30T13:54:56.150Z,12.47
2023-11-30T13:57:23.790Z,12.20
2023-11-30T13:59:52.818Z,14.00
2023-11-30T14:02:20.625Z,13.83
2023-11-30T14:04:50.543Z,12.57
2023-11-30T14:07:18.399Z,13.67
2023-11-30T14:09:46.290Z,13.67
2023-11-30T14:12:14.107Z,14.00
2023-11-30T14:14:42.521Z,13.60
2023-11-30T14:17:11.724Z,13.87
2023-11-30T14:19:39.360Z,17.57
2023-11-30T14:22:10.648Z,15.07
2023-11-30T14:24:38.596Z,14.80
2023-11-30T14:27:07.052Z,13.03
2023-11-30T14:29:34.735Z,12.90
2023-11-30T14:32:04.419Z,12.87
2023-11-30T14:34:33.428Z,12.83
2023-11-30T14:37:01.509Z,11.60
2023-11-30T14:39:29.697Z,11.83
2023-11-30T14:41:57.677Z,11.03
2023-11-30T14:44:26.080Z,12.20
2023-11-30T14:46:53.857Z,12.57
2023-11-30T14:49:21.521Z,12.00
2023-11-30T14:51:50.630Z,13.13
2023-11-30T14:54:18.310Z,13.23
2023-11-30T14:56:45.968Z,13.87
2023-11-30T14:59:13.718Z,13.50
2023-11-30T15:01:41.648Z,12.67
2023-11-30T15:04:12.158Z,14.30
2023-11-30T15:06:44.267Z,17.50
2023-11-30T15:09:15.444Z,14.60
2023-11-30T15:11:44.380Z,14.27
2023-11-30T15:14:12.181Z,12.77
2023-11-30T15:16:40.698Z,13.47
2023-11-30T15:19:09.889Z,13.37
2023-11-30T15:21:37.647Z,13.63
2023-11-30T15:24:05.784Z,13.53
2023-11-30T15:26:34.833Z,14.33
2023-11-30T15:29:02.588Z,14.90
2023-11-30T15:31:30.297Z,14.77
2023-11-30T15:33:58.143Z,14.83
2023-11-30T15:36:26.054Z,14.93
2023-11-30T15:38:53.859Z,14.43
2023-11-30T15:41:21.590Z,13.73
2023-11-30T15:43:50.632Z,13.90
2023-11-30T15:46:18.295Z,14.80
2023-11-30T15:48:46.061Z,14.50
2023-11-30T15:51:13.751Z,14.30
2023-11-30T15:53:41.632Z,14.17
2023-11-30T15:56:09.970Z,14.40
2023-11-30T15:58:38.588Z,13.73
2023-11-30T16:01:11.889Z,14.70
2023-11-30T16:03:39.794Z,14.80
2023-11-30T16:06:11.329Z,14.33
2023-11-30T16:08:39.178Z,15.37
2023-11-30T16:11:13.498Z,15.50
2023-11-30T16:13:41.360Z,16.57
2023-11-30T16:16:13.276Z,14.70
2023-11-30T16:18:41.488Z,15.40
2023-11-30T16:21:16.676Z,15.20
2023-11-30T16:23:44.424Z,14.63
2023-11-30T16:26:18.128Z,14.13
2023-11-30T16:28:45.887Z,13.87
2023-11-30T16:31:15.041Z,14.73
2023-11-30T16:33:43.360Z,15.93
2023-11-30T16:36:12.397Z,16.47
2023-11-30T16:38:40.090Z,13.63
2023-11-30T16:41:08.607Z,16.10
2023-11-30T16:43:37.398Z,15.17
2023-11-30T16:46:07.232Z,13.33
2023-11-30T16:48:36.339Z,14.60
2023-11-30T16:51:07.036Z,13.87
2023-11-30T16:53:34.951Z,14.03
2023-11-30T16:56:03.935Z,15.03
2023-11-30T16:58:32.520Z,15.03
2023-11-30T17:01:00.332Z,14.57
2023-11-30T17:03:28.101Z,13.53
2023-11-30T17:05:57.964Z,13.80
2023-11-30T17:08:25.902Z,15.37
2023-11-30T17:10:53.833Z,14.37
2023-11-30T17:13:21.470Z,16.03
2023-11-30T17:15:49.341Z,16.83
2023-11-30T17:18:16.982Z,16.97
2023-11-30T17:20:44.619Z,16.30
2023-11-30T17:23:13.891Z,15.67
2023-11-30T17:25:41.599Z,17.30
2023-11-30T17:28:09.266Z,18.83
2023-11-30T17:30:37.059Z,18.90
2023-11-30T17:33:05.100Z,18.33
2023-11-30T17:35:33.024Z,17.43
2023-11-30T17:38:00.826Z,17.83
2023-11-30T17:40:29.918Z,17.87
2023-11-30T17:42:58.208Z,18.77
2023-11-30T17:45:25.980Z,18.40
2023-11-30T17:47:54.905Z,17.07
2023-11-30T17:50:24.157Z,18.50
2023-11-30T17:52:51.854Z,18.47
2023-11-30T17:55:20.489Z,18.60
2023-11-30T17:57:49.582Z,20.27
2023-11-30T18:00:18.234Z,19.10
2023-11-30T18:02:45.978Z,19.43
2023-11-30T18:05:13.678Z,19.40
2023-11-30T18:07:41.407Z,33.67
2023-11-30T18:10:10.032Z,29.17
2023-11-30T18:12:37.843Z,24.77
2023-11-30T18:15:08.246Z,24.23
2023-11-30T18:17:35.914Z,21.50
2023-11-30T18:20:03.765Z,18.07
2023-11-30T18:22:34.068Z,18.47
2023-11-30T18:25:02.106Z,17.27
2023-11-30T18:27:29.977Z,19.03
2023-11-30T18:29:57.843Z,19.47
2023-11-30T18:32:26.952Z,17.57
2023-11-30T18:34:55.760Z,19.40
2023-11-30T18:37:24.430Z,19.77
2023-11-30T18:39:52.214Z,20.37
2023-11-30T18:42:19.917Z,20.20
2023-11-30T18:44:47.788Z,17.43
2023-11-30T18:47:15.823Z,17.00
2023-11-30T18:49:44.919Z,18.63
2023-11-30T18:52:12.561Z,19.40
2023-11-30T18:54:40.418Z,19.90
2023-11-30T18:57:08.069Z,18.47
2023-11-30T18:59:35.882Z,21.50
2023-11-30T19:02:03.649Z,19.20
2023-11-30T19:04:31.420Z,22.03
2023-11-30T19:07:00.519Z,17.97
2023-11-30T19:09:28.239Z,17.27
2023-11-30T19:11:56.046Z,17.53
2023-11-30T19:14:23.687Z,19.47
2023-11-30T19:16:51.449Z,18.23
2023-11-30T19:19:19.331Z,18.60
2023-11-30T19:21:48.733Z,20.47
2023-11-30T19:24:17.974Z,20.53
2023-11-30T19:26:45.635Z,20.17
2023-11-30T19:29:14.055Z,18.87
2023-11-30T19:31:42.019Z,19.13
2023-11-30T19:34:10.511Z,18.77
2023-11-30T19:36:39.821Z,18.37
2023-11-30T19:39:10.653Z,18.80
2023-11-30T19:41:42.364Z,17.87
2023-11-30T19:44:10.195Z,16.77
2023-11-30T19:46:39.088Z,16.57
2023-11-30T19:49:06.967Z,16.67
2023-11-30T19:51:34.839Z,17.27
2023-11-30T19:54:03.283Z,17.53
2023-11-30T19:56:32.326Z,16.97
2023-11-30T19:59:02.045Z,17.90
2023-11-30T20:01:29.810Z,16.90
2023-11-30T20:03:57.634Z,17.13
2023-11-30T20:06:25.602Z,18.60
2023-11-30T20:08:53.374Z,17.50
2023-11-30T20:11:22.476Z,18.63
2023-11-30T20:13:51.598Z,17.80
2023-11-30T20:16:20.728Z,17.47
2023-11-30T20:18:48.469Z,17.27
2023-11-30T20:21:21.056Z,18.70
2023-11-30T20:23:48.914Z,17.47
2023-11-30T20:26:18.762Z,19.40
2023-11-30T20:28:47.005Z,24.80
2023-11-30T20:31:15.088Z,26.60
2023-11-30T20:33:46.839Z,19.60
2023-11-30T20:36:14.702Z,17.90
2023-11-30T20:38:42.329Z,18.17
2023-11-30T20:41:11.212Z,17.00
2023-11-30T20:43:38.860Z,17.10
2023-11-30T20:46:07.130Z,18.63
2023-11-30T20:48:34.842Z,17.17
2023-11-30T20:51:03.999Z,16.40
2023-11-30T20:53:31.767Z,16.93
2023-11-30T20:56:00.181Z,17.37
2023-11-30T20:58:28.008Z,16.83
2023-11-30T21:00:55.962Z,18.00
2023-11-30T21:03:23.818Z,16.97
2023-11-30T21:08:39.621Z,17.37
2023-11-30T21:11:08.630Z,17.07
2023-11-30T21:13:36.299Z,18.57
2023-11-30T21:16:04.169Z,17.40
2023-11-30T21:18:31.993Z,17.67
2023-11-30T21:20:59.692Z,17.77
2023-11-30T21:23:27.426Z,19.03
2023-11-30T21:25:56.605Z,20.13
2023-11-30T21:28:24.271Z,20.63
2023-11-30T21:30:51.970Z,21.53
2023-11-30T21:33:20.654Z,17.87
2023-11-30T21:35:48.291Z,16.80
2023-11-30T21:38:16.036Z,16.37
2023-11-30T21:40:43.953Z,18.97
2023-11-30T21:43:13.259Z,19.07
2023-11-30T21:45:40.995Z,17.63
2023-11-30T21:48:08.792Z,17.33
2023-11-30T21:50:36.522Z,15.67
2023-11-30T21:53:03.454Z,15.40
2023-11-30T21:55:31.612Z,16.37
2023-11-30T21:57:59.327Z,16.20
2023-11-30T22:00:28.774Z,15.70
2023-11-30T22:02:57.560Z,16.50
2023-11-30T22:05:30.884Z,16.27
2023-11-30T22:08:04.034Z,15.60
2023-11-30T22:10:31.781Z,18.10
2023-11-30T22:13:00.013Z,17.23
2023-11-30T22:15:29.064Z,16.57
2023-11-30T22:17:57.694Z,16.00
2023-11-30T22:20:25.421Z,15.90
2023-11-30T22:22:53.231Z,16.60
2023-11-30T22:25:20.879Z,17.20
2023-11-30T22:27:48.633Z,15.23
2023-11-30T22:30:16.682Z,16.37
2023-11-30T22:32:45.720Z,15.43
2023-11-30T22:35:13.520Z,16.03
2023-11-30T22:37:41.335Z,16.57
2023-11-30T22:40:10.407Z,16.77
2023-11-30T22:42:38.703Z,16.80
2023-11-30T22:45:07.723Z,16.60
2023-11-30T22:47:36.496Z,17.37
2023-11-30T22:50:06.464Z,17.23
2023-11-30T22:52:34.765Z,17.20
2023-11-30T22:55:02.773Z,18.67
2023-11-30T22:57:30.604Z,18.17
2023-11-30T22:59:58.551Z,19.37
2023-11-30T23:02:28.160Z,18.30
2023-11-30T23:04:56.204Z,19.03
2023-11-30T23:07:25.347Z,18.67
2023-11-30T23:09:53.161Z,18.03
2023-11-30T23:12:20.877Z,18.30
2023-11-30T23:14:48.570Z,18.17
2023-11-30T23:17:16.309Z,18.63
2023-11-30T23:19:44.107Z,19.17
2023-11-30T23:22:11.815Z,18.50
2023-11-30T23:24:43.336Z,18.00
2023-11-30T23:27:10.988Z,18.73
2023-11-30T23:29:41.187Z,17.57
2023-11-30T23:32:09.190Z,17.27
2023-11-30T23:34:38.134Z,17.40
2023-11-30T23:37:06.384Z,18.03
2023-11-30T23:39:34.234Z,17.83
2023-11-30T23:42:03.260Z,17.97
2023-11-30T23:44:31.170Z,17.57
2023-11-30T23:46:58.902Z,16.47
2023-11-30T23:49:26.908Z,16.97
2023-11-30T23:51:54.667Z,18.03
2023-11-30T23:54:22.500Z,16.73
2023-11-30T23:56:50.205Z,16.50
2023-11-30T23:59:19.211Z,16.97
